Time;durP1;ratioP1;P1;durP2;ratioP2;P2;SDS_P1;SDS_P2;PMS_P1;PMS_P2;Temp;Humidity;BMP_temperature;BMP_pressure;BME280_temperature;BME280_humidity;BME280_pressure;Samples;Min_cycle;Max_cycle;Signal;HPM_P1;HPM_P2
2022/11/17 00:01:24;;;;;;;8.40;6.27;;;3.80;1.00;;;;;;5091808;28;20188;-82
2022/11/17 00:03:52;;;;;;;8.13;6.13;;;3.80;1.00;;;;;;5091526;28;20623;-82
2022/11/17 00:06:20;;;;;;;8.03;6.13;;;3.80;1.00;;;;;;5091750;28;20203;-82
2022/11/17 00:08:48;;;;;;;8.57;5.87;;;3.80;1.00;;;;;;5091608;28;20194;-82
2022/11/17 00:11:15;;;;;;;8.00;5.90;;;3.70;1.00;;;;;;5081705;28;20200;-82
2022/11/17 00:16:26;;;;;;;7.43;5.70;;;3.80;1.00;;;;;;5091565;28;20313;-84
2022/11/17 00:21:40;;;;;;;10.07;6.90;;;3.70;1.00;;;;;;5091476;28;20248;-82
2022/11/17 00:24:07;;;;;;;7.97;6.00;;;3.70;1.00;;;;;;5091460;28;20238;-81
2022/11/17 00:27:00;;;;;;;9.43;6.93;;;3.70;1.00;;;;;;5092219;28;20271;-83
2022/11/17 00:29:23;;;;;;;9.03;6.83;;;3.70;1.00;;;;;;5094647;28;20258;-82
2022/11/17 00:34:34;;;;;;;9.00;6.80;;;3.70;1.00;;;;;;5091003;28;20202;-82
2022/11/17 00:37:03;;;;;;;8.80;6.83;;;3.70;1.00;;;;;;5094698;28;20610;-81
2022/11/17 00:39:30;;;;;;;8.07;6.60;;;3.70;1.00;;;;;;5094703;28;20199;-81
2022/11/17 00:41:58;;;;;;;9.10;6.70;;;3.70;1.00;;;;;;5094924;28;20588;-82
2022/11/17 00:44:25;;;;;;;8.40;6.87;;;3.80;1.00;;;;;;5094660;28;20617;-82
2022/11/17 00:46:52;;;;;;;10.07;6.27;;;3.80;1.00;;;;;;5094557;28;20196;-83
2022/11/17 00:49:20;;;;;;;10.77;7.10;;;3.80;1.00;;;;;;5094863;28;20226;-82
2022/11/17 00:51:47;;;;;;;7.83;6.30;;;3.90;1.00;;;;;;5094334;28;20218;-83
2022/11/17 00:54:15;;;;;;;8.00;6.27;;;3.90;1.00;;;;;;5094495;28;20217;-81
2022/11/17 00:56:43;;;;;;;8.83;6.30;;;3.90;1.00;;;;;;5094471;28;20225;-81
2022/11/17 00:59:10;;;;;;;5.93;4.97;;;3.90;1.00;;;;;;5094984;28;20191;-82
2022/11/17 01:01:38;;;;;;;8.07;6.67;;;3.90;1.00;;;;;;5094706;28;20237;-82
2022/11/17 01:04:06;;;;;;;7.77;6.13;;;3.90;1.00;;;;;;5094509;28;20246;-82
2022/11/17 01:06:35;;;;;;;8.83;6.70;;;3.90;1.00;;;;;;5094442;28;20260;-83
2022/11/17 01:09:04;;;;;;;10.00;7.40;;;3.90;1.00;;;;;;5094389;28;20645;-82
2022/11/17 01:11:33;;;;;;;8.57;6.23;;;3.90;1.00;;;;;;5094423;28;20198;-84
2022/11/17 01:14:01;;;;;;;8.53;5.93;;;3.90;1.00;;;;;;5094114;28;20192;-82
2022/11/17 01:16:30;;;;;;;8.87;7.27;;;3.90;1.00;;;;;;5094271;28;20195;-82
2022/11/17 01:19:00;;;;;;;9.03;7.03;;;3.90;1.00;;;;;;5093965;28;20599;-84
2022/11/17 01:21:28;;;;;;;8.50;6.10;;;3.90;1.00;;;;;;5094254;28;20194;-82
2022/11/17 01:23:56;;;;;;;10.90;7.57;;;4.00;1.00;;;;;;5093653;28;20215;-81
2022/11/17 01:26:26;;;;;;;8.33;7.17;;;4.00;1.00;;;;;;5094150;28;20245;-82
2022/11/17 01:28:54;;;;;;;10.10;7.20;;;4.00;1.00;;;;;;5093436;28;20196;-82
2022/11/17 01:31:23;;;;;;;9.53;6.77;;;4.00;1.00;;;;;;5089946;28;20646;-82
2022/11/17 01:33:50;;;;;;;8.20;6.07;;;4.00;1.00;;;;;;5083974;28;20195;-84
2022/11/17 01:36:21;;;;;;;9.80;6.70;;;4.00;1.00;;;;;;5093625;28;20199;-82
2022/11/17 01:38:48;;;;;;;9.00;6.50;;;4.00;1.00;;;;;;5093987;28;20192;-82
2022/11/17 01:41:18;;;;;;;8.40;6.17;;;4.00;1.00;;;;;;5093667;28;20245;-82
2022/11/17 01:43:46;;;;;;;8.77;6.57;;;4.00;1.00;;;;;;5093546;28;20248;-82
2022/11/17 01:46:27;;;;;;;9.03;6.90;;;4.00;1.00;;;;;;5093833;28;20199;-81
2022/11/17 01:48:57;;;;;;;8.93;6.37;;;4.00;1.00;;;;;;5093779;28;20191;-81
2022/11/17 01:51:25;;;;;;;9.47;6.83;;;4.00;1.00;;;;;;5093337;28;20191;-82
2022/11/17 01:53:52;;;;;;;9.50;7.43;;;4.00;1.00;;;;;;5093628;28;20195;-84
2022/11/17 01:56:27;;;;;;;8.17;6.60;;;4.00;1.00;;;;;;5093282;28;20718;-82
2022/11/17 01:58:58;;;;;;;7.27;6.30;;;3.90;1.00;;;;;;5093058;28;20190;-81
2022/11/17 02:01:26;;;;;;;8.13;6.43;;;4.00;1.00;;;;;;5093325;28;20272;-82
2022/11/17 02:03:53;;;;;;;10.40;6.30;;;4.00;1.00;;;;;;5093042;28;20616;-82
2022/11/17 02:06:26;;;;;;;8.37;6.77;;;3.90;1.00;;;;;;5093063;28;20199;-82
2022/11/17 02:08:55;;;;;;;9.00;5.83;;;4.00;1.00;;;;;;5092625;28;20241;-82
2022/11/17 02:11:22;;;;;;;8.90;6.40;;;4.00;1.00;;;;;;5093277;28;20202;-82
2022/11/17 02:13:53;;;;;;;8.63;6.53;;;4.00;1.00;;;;;;5093110;28;20240;-82
2022/11/17 02:16:20;;;;;;;10.60;6.80;;;3.90;1.00;;;;;;5092835;28;20664;-82
2022/11/17 02:18:49;;;;;;;8.67;5.77;;;3.90;1.00;;;;;;5092973;28;20203;-81
2022/11/17 02:21:50;;;;;;;10.03;7.27;;;3.90;1.00;;;;;;5093340;28;20191;-81
2022/11/17 02:24:59;;;;;;;11.73;7.23;;;3.90;1.00;;;;;;5092899;28;20283;-82
2022/11/17 02:27:59;;;;;;;7.47;5.87;;;3.90;1.00;;;;;;5092898;28;20535;-81
2022/11/17 02:30:34;;;;;;;10.47;6.60;;;3.90;1.00;;;;;;5092558;28;20238;-82
2022/11/17 02:33:06;;;;;;;11.27;6.90;;;3.90;1.00;;;;;;5078206;28;20558;-82
2022/11/17 02:35:43;;;;;;;8.90;6.47;;;3.80;1.00;;;;;;5092653;28;20215;-83
2022/11/17 02:38:26;;;;;;;8.70;6.90;;;3.80;1.00;;;;;;5092729;28;20701;-82
2022/11/17 02:40:59;;;;;;;7.50;6.40;;;3.90;1.00;;;;;;5092463;28;20240;-82
2022/11/17 02:46:21;;;;;;;9.17;6.53;;;3.80;1.00;;;;;;5092350;28;20214;-82
2022/11/17 02:48:53;;;;;;;8.97;6.73;;;3.80;1.00;;;;;;5092002;28;20195;-82
2022/11/17 02:51:22;;;;;;;9.83;6.27;;;3.90;1.00;;;;;;5092421;28;20213;-82
2022/11/17 02:53:52;;;;;;;12.17;5.90;;;3.90;1.00;;;;;;5092383;28;20198;-83
2022/11/17 02:56:19;;;;;;;9.20;6.57;;;3.90;1.00;;;;;;5092489;28;20653;-82
2022/11/17 02:58:50;;;;;;;8.97;6.73;;;3.90;1.00;;;;;;5092646;28;20596;-82
2022/11/17 03:01:42;;;;;;;10.87;7.53;;;3.90;1.00;;;;;;5092722;28;20636;-82
2022/11/17 03:04:24;;;;;;;8.93;7.20;;;3.90;1.00;;;;;;5080043;28;20203;-83
2022/11/17 03:06:59;;;;;;;8.67;6.30;;;3.90;1.00;;;;;;5092285;28;20599;-83
2022/11/17 03:09:38;;;;;;;8.33;6.43;;;3.90;1.00;;;;;;5092328;28;20195;-82
2022/11/17 03:12:09;;;;;;;9.37;7.20;;;3.90;1.00;;;;;;5092209;28;20179;-82
2022/11/17 03:14:48;;;;;;;8.80;6.40;;;3.90;1.00;;;;;;5092138;28;20195;-82
2022/11/17 03:17:19;;;;;;;10.23;7.07;;;3.90;1.00;;;;;;5092163;28;20546;-82
2022/11/17 03:19:55;;;;;;;9.60;5.80;;;3.90;1.00;;;;;;5092551;28;20641;-81
2022/11/17 03:22:27;;;;;;;8.97;6.83;;;3.90;1.00;;;;;;5092195;28;20219;-82
2022/11/17 03:24:58;;;;;;;8.90;6.10;;;3.90;1.00;;;;;;5092035;28;20256;-82
2022/11/17 03:27:27;;;;;;;10.00;6.77;;;3.90;1.00;;;;;;5091749;28;20212;-81
2022/11/17 03:30:00;;;;;;;8.10;5.93;;;3.90;1.00;;;;;;5091858;28;20329;-82
2022/11/17 03:32:31;;;;;;;9.40;7.03;;;3.90;1.00;;;;;;5078746;28;20608;-82
2022/11/17 03:35:03;;;;;;;8.77;6.97;;;3.90;1.00;;;;;;5091491;28;20240;-82
2022/11/17 03:37:33;;;;;;;9.13;6.57;;;3.90;1.00;;;;;;5092099;28;20195;-82
2022/11/17 03:40:04;;;;;;;8.93;7.13;;;3.90;1.00;;;;;;5082922;28;20229;-83
2022/11/17 03:42:36;;;;;;;7.87;5.73;;;3.80;1.00;;;;;;5091423;28;20657;-82
2022/11/17 03:45:09;;;;;;;8.30;5.27;;;3.80;1.00;;;;;;5091634;28;20244;-82
2022/11/17 03:47:36;;;;;;;9.37;6.37;;;3.80;1.00;;;;;;5077665;28;20195;-82
2022/11/17 03:50:09;;;;;;;9.00;6.77;;;3.80;1.00;;;;;;5091985;28;20595;-84
2022/11/17 03:52:37;;;;;;;9.13;7.13;;;3.80;1.00;;;;;;5092031;28;20711;-82
2022/11/17 03:55:06;;;;;;;12.00;6.10;;;3.70;1.00;;;;;;5091840;28;20191;-82
2022/11/17 03:57:40;;;;;;;8.93;6.03;;;3.70;1.00;;;;;;5082743;28;20192;-82
2022/11/17 04:00:11;;;;;;;9.73;6.60;;;3.70;1.00;;;;;;5087122;28;20191;-81
2022/11/17 04:02:41;;;;;;;10.03;6.87;;;3.70;1.00;;;;;;5091634;28;20342;-82
2022/11/17 04:05:08;;;;;;;8.93;5.80;;;3.70;1.00;;;;;;5095547;28;20292;-83
2022/11/17 04:07:38;;;;;;;9.07;6.43;;;3.70;1.00;;;;;;5095807;28;20595;-81
2022/11/17 04:10:08;;;;;;;8.70;5.93;;;3.70;1.00;;;;;;5095066;28;20190;-83
2022/11/17 04:18:06;;;;;;;8.73;6.03;;;3.70;1.00;;;;;;5095415;28;20218;-82
2022/11/17 04:20:35;;;;;;;8.67;6.17;;;3.70;1.00;;;;;;5095032;28;20244;-82
2022/11/17 04:23:10;;;;;;;8.17;6.17;;;3.70;1.00;;;;;;5095131;28;20278;-82
2022/11/17 04:28:39;;;;;;;8.07;6.07;;;3.70;1.00;;;;;;5094811;28;20189;-81
2022/11/17 04:31:12;;;;;;;7.50;5.10;;;3.70;1.00;;;;;;5093542;28;20241;-83
2022/11/17 04:33:41;;;;;;;7.10;5.27;;;3.80;1.00;;;;;;5095017;28;20195;-82
2022/11/17 04:36:09;;;;;;;9.70;6.60;;;3.80;1.00;;;;;;5095006;28;20604;-82
2022/11/17 04:38:36;;;;;;;8.10;6.03;;;3.70;1.00;;;;;;5094850;28;20543;-82
2022/11/17 04:43:51;;;;;;;8.93;5.77;;;3.70;1.00;;;;;;5095063;28;20214;-82
2022/11/17 04:46:20;;;;;;;8.03;5.93;;;3.70;1.00;;;;;;5094270;28;20707;-83
2022/11/17 04:48:48;;;;;;;10.43;6.27;;;3.70;1.00;;;;;;5086906;28;20192;-83
2022/11/17 04:51:16;;;;;;;7.70;5.53;;;3.70;1.00;;;;;;5094423;28;20653;-82
2022/11/17 04:53:44;;;;;;;8.33;6.40;;;3.70;1.00;;;;;;5094899;28;20253;-82
2022/11/17 04:56:12;;;;;;;7.13;5.37;;;3.70;1.00;;;;;;5094705;28;20320;-82
2022/11/17 04:58:39;;;;;;;9.17;6.17;;;3.70;1.00;;;;;;5094499;28;20195;-84
2022/11/17 05:01:12;;;;;;;7.40;5.03;;;3.70;1.00;;;;;;5088750;28;20192;-82
2022/11/17 05:03:43;;;;;;;6.40;4.80;;;3.70;1.00;;;;;;5074309;28;20204;-81
2022/11/17 05:06:13;;;;;;;6.97;5.30;;;3.70;1.00;;;;;;5074360;28;20196;-82
2022/11/17 05:08:40;;;;;;;7.00;5.60;;;3.70;1.00;;;;;;5074204;28;20192;-82
2022/11/17 05:13:54;;;;;;;7.33;5.37;;;3.60;1.00;;;;;;5073882;28;20187;-84
2022/11/17 05:19:09;;;;;;;6.93;5.37;;;3.60;1.00;;;;;;5073940;28;20195;-84
2022/11/17 05:21:36;;;;;;;5.80;4.37;;;3.60;1.00;;;;;;5074400;28;20592;-83
2022/11/17 05:24:02;;;;;;;7.73;5.87;;;3.60;1.00;;;;;;5077793;28;20212;-83
2022/11/17 05:26:31;;;;;;;7.47;4.93;;;3.60;1.00;;;;;;5073665;28;20198;-81
2022/11/17 05:29:00;;;;;;;7.90;5.83;;;3.60;1.00;;;;;;5073257;28;20196;-81
2022/11/17 05:31:28;;;;;;;7.30;5.20;;;3.60;1.00;;;;;;5073881;28;20588;-81
2022/11/17 05:33:55;;;;;;;6.70;5.30;;;3.60;1.00;;;;;;5073412;28;20200;-82
2022/11/17 05:36:25;;;;;;;8.17;5.43;;;3.50;1.00;;;;;;5084895;28;20649;-82
2022/11/17 05:38:53;;;;;;;8.73;5.57;;;3.60;1.00;;;;;;5076655;28;20192;-82
2022/11/17 05:41:20;;;;;;;8.83;5.37;;;3.50;1.00;;;;;;5084520;28;20245;-81
2022/11/17 05:43:49;;;;;;;5.63;4.13;;;3.60;1.00;;;;;;5078795;28;20207;-82
2022/11/17 05:46:16;;;;;;;7.47;5.57;;;3.60;1.00;;;;;;5073150;28;20231;-81
2022/11/17 05:48:44;;;;;;;8.03;6.10;;;3.60;1.00;;;;;;5077436;28;20245;-81
2022/11/17 05:51:11;;;;;;;8.63;5.80;;;3.60;1.00;;;;;;5092860;28;20660;-81
2022/11/17 05:53:39;;;;;;;9.97;6.37;;;3.50;1.00;;;;;;5093069;28;20534;-81
2022/11/17 05:56:21;;;;;;;7.13;5.07;;;3.60;1.00;;;;;;5093702;28;20248;-81
2022/11/17 05:58:52;;;;;;;9.00;5.50;;;3.60;1.00;;;;;;5080091;28;20697;-81
2022/11/17 06:01:20;;;;;;;8.33;5.83;;;3.60;1.00;;;;;;5090107;28;20675;-86
2022/11/17 06:03:52;;;;;;;8.70;5.60;;;3.60;1.00;;;;;;5073547;28;20216;-85
2022/11/17 06:06:20;;;;;;;8.67;5.23;;;3.60;1.00;;;;;;5072820;28;20192;-85
2022/11/17 06:08:49;;;;;;;7.67;5.33;;;3.60;1.00;;;;;;5073296;28;20242;-85
2022/11/17 06:11:18;;;;;;;9.07;5.70;;;3.60;1.00;;;;;;5076281;28;20596;-85
2022/11/17 06:13:45;;;;;;;8.40;6.33;;;3.60;1.00;;;;;;5076024;28;20557;-85
2022/11/17 06:16:17;;;;;;;7.33;5.13;;;3.60;1.00;;;;;;5090709;28;20268;-85
2022/11/17 06:18:48;;;;;;;7.47;5.47;;;3.60;1.00;;;;;;5075071;28;20196;-85
2022/11/17 06:21:16;;;;;;;8.13;5.90;;;3.50;1.00;;;;;;5073127;28;20195;-86
2022/11/17 06:23:44;;;;;;;8.57;6.27;;;3.60;1.00;;;;;;5072534;28;20550;-85
2022/11/17 06:26:14;;;;;;;6.13;4.87;;;3.60;1.00;;;;;;5072592;28;20192;-85
2022/11/17 06:28:45;;;;;;;7.50;5.83;;;3.60;1.00;;;;;;5072831;28;20258;-86
2022/11/17 06:31:12;;;;;;;8.23;5.33;;;3.60;1.00;;;;;;5072565;28;20187;-84
2022/11/17 06:33:40;;;;;;;9.10;6.23;;;3.60;99.90;;;;;;5072729;28;20603;-85
2022/11/17 06:36:08;;;;;;;10.53;6.07;;;3.60;99.90;;;;;;5072817;28;20211;-86
2022/11/17 06:38:35;;;;;;;9.47;6.40;;;3.60;1.00;;;;;;5075451;28;20196;-86
2022/11/17 06:41:03;;;;;;;7.83;5.27;;;3.50;99.90;;;;;;5072476;28;20219;-86
2022/11/17 06:43:32;;;;;;;7.73;5.03;;;3.50;99.90;;;;;;5072834;28;20279;-85
2022/11/17 06:46:03;;;;;;;8.87;6.03;;;3.50;99.90;;;;;;5072264;28;20602;-86
2022/11/17 06:48:34;;;;;;;8.50;5.73;;;3.50;99.90;;;;;;5074953;28;20192;-87
2022/11/17 06:51:03;;;;;;;10.17;5.97;;;3.50;1.00;;;;;;5086879;28;20191;-85
2022/11/17 06:53:31;;;;;;;10.97;7.40;;;3.50;99.90;;;;;;5092677;28;20195;-85
2022/11/17 06:56:01;;;;;;;9.33;6.47;;;3.50;99.90;;;;;;5093092;28;20191;-87
2022/11/17 06:58:29;;;;;;;8.87;6.03;;;3.50;99.90;;;;;;5092806;28;20230;-87
2022/11/17 07:01:04;;;;;;;10.27;7.17;;;3.50;99.90;;;;;;5092793;28;20227;-85
2022/11/17 07:03:31;;;;;;;10.77;7.03;;;3.50;99.90;;;;;;5092774;28;20259;-85
2022/11/17 07:06:00;;;;;;;10.00;6.60;;;3.50;99.90;;;;;;5096544;28;20227;-87
2022/11/17 07:08:28;;;;;;;9.57;7.00;;;3.60;1.00;;;;;;5092780;28;20275;-87
2022/11/17 07:10:55;;;;;;;10.93;7.33;;;3.60;99.90;;;;;;5092768;28;20588;-88
2022/11/17 07:13:23;;;;;;;9.57;5.90;;;3.60;99.90;;;;;;5092466;28;20244;-86
2022/11/17 07:15:51;;;;;;;9.13;6.23;;;3.60;1.00;;;;;;5092819;28;20203;-87
2022/11/17 07:18:20;;;;;;;9.57;7.30;;;3.60;99.90;;;;;;5092713;28;20655;-86
2022/11/17 07:20:48;;;;;;;7.97;5.43;;;3.60;99.90;;;;;;5092499;28;20194;-86
2022/11/17 07:23:15;;;;;;;8.67;6.37;;;3.60;99.90;;;;;;5092752;28;20191;-86
2022/11/17 07:25:42;;;;;;;9.73;6.93;;;3.60;99.90;;;;;;5092219;28;20268;-86
2022/11/17 07:28:09;;;;;;;13.37;7.00;;;3.60;99.90;;;;;;5092168;28;20283;-87
2022/11/17 07:30:36;;;;;;;11.30;7.30;;;3.60;99.90;;;;;;5092287;28;20294;-86
2022/11/17 07:33:04;;;;;;;8.90;6.30;;;3.60;99.90;;;;;;5092738;28;20323;-88
2022/11/17 07:35:36;;;;;;;10.70;7.07;;;3.60;99.90;;;;;;5093003;28;20612;-88
2022/11/17 07:38:03;;;;;;;10.27;7.10;;;3.60;99.90;;;;;;5096689;28;20269;-87
2022/11/17 07:40:31;;;;;;;9.37;6.43;;;3.60;99.90;;;;;;5096769;28;20211;-88
2022/11/17 07:42:58;;;;;;;11.60;7.50;;;3.70;99.90;;;;;;5096797;28;20558;-87
2022/11/17 07:45:26;;;;;;;10.40;7.30;;;3.60;99.90;;;;;;5096507;28;20222;-87
2022/11/17 07:47:55;;;;;;;11.77;7.80;;;3.70;99.90;;;;;;5094183;28;20205;-87
2022/11/17 07:50:22;;;;;;;11.10;7.90;;;3.70;99.90;;;;;;5084444;28;20696;-85
2022/11/17 07:52:52;;;;;;;7.83;5.70;;;3.70;99.90;;;;;;5100760;28;20202;-87
2022/11/17 07:55:19;;;;;;;11.53;7.43;;;3.70;99.90;;;;;;5096524;28;20252;-86
2022/11/17 07:57:46;;;;;;;10.00;7.40;;;3.70;99.90;;;;;;5096393;28;20191;-88
2022/11/17 08:00:15;;;;;;;11.27;8.10;;;3.80;99.90;;;;;;5096179;28;20195;-87
2022/11/17 08:02:42;;;;;;;11.13;7.30;;;3.70;99.90;;;;;;5099158;28;20690;-86
2022/11/17 08:05:09;;;;;;;11.10;7.33;;;3.80;99.90;;;;;;5095905;28;20276;-87
2022/11/17 08:07:36;;;;;;;11.20;7.07;;;3.80;99.90;;;;;;5095999;28;20192;-86
2022/11/17 08:10:06;;;;;;;11.00;7.60;;;3.90;99.90;;;;;;5096218;28;20279;-86
2022/11/17 08:12:33;;;;;;;12.53;8.23;;;3.90;99.90;;;;;;5095984;28;20212;-87
2022/11/17 08:15:00;;;;;;;11.87;8.27;;;4.00;99.90;;;;;;5096420;28;20207;-86
2022/11/17 08:17:29;;;;;;;10.00;6.77;;;4.00;99.90;;;;;;5096373;28;20215;-86
2022/11/17 08:19:56;;;;;;;9.90;6.87;;;4.00;99.90;;;;;;5096144;28;20230;-87
2022/11/17 08:22:23;;;;;;;10.53;7.10;;;4.00;99.90;;;;;;5095376;28;20659;-86
2022/11/17 08:24:50;;;;;;;13.27;8.23;;;4.00;99.90;;;;;;5095659;28;20627;-87
2022/11/17 08:27:18;;;;;;;10.77;7.90;;;4.10;99.90;;;;;;5099520;28;20205;-86
2022/11/17 08:29:46;;;;;;;13.10;8.30;;;4.10;99.90;;;;;;5095317;28;20276;-86
2022/11/17 08:32:13;;;;;;;10.20;6.77;;;4.10;99.90;;;;;;5095727;28;20676;-89
2022/11/17 08:34:40;;;;;;;8.73;6.13;;;4.10;99.90;;;;;;5098793;28;20203;-85
2022/11/17 08:37:07;;;;;;;11.47;8.23;;;4.10;99.90;;;;;;5099553;28;20187;-87
2022/11/17 08:39:34;;;;;;;12.37;8.33;;;4.10;99.90;;;;;;5095145;28;20203;-85
2022/11/17 08:42:01;;;;;;;13.27;8.70;;;4.20;99.90;;;;;;5095716;28;20649;-87
2022/11/17 08:44:30;;;;;;;11.27;8.27;;;4.20;99.90;;;;;;5099064;28;20190;-88
2022/11/17 08:46:57;;;;;;;11.83;7.37;;;4.30;99.90;;;;;;5096416;28;20584;-86
2022/11/17 08:49:24;;;;;;;10.50;8.27;;;4.30;99.90;;;;;;5081037;28;20207;-85
2022/11/17 08:51:51;;;;;;;10.70;7.53;;;4.30;99.90;;;;;;5095491;28;20199;-86
2022/11/17 08:54:18;;;;;;;11.80;8.37;;;4.30;99.90;;;;;;5098759;28;20207;-86
2022/11/17 08:56:45;;;;;;;12.83;8.60;;;4.30;99.90;;;;;;5098704;28;20195;-85
2022/11/17 08:59:13;;;;;;;11.10;8.37;;;4.40;99.90;;;;;;5101168;28;20657;-89
2022/11/17 09:01:43;;;;;;;12.27;8.70;;;4.40;99.90;;;;;;5100167;28;20222;-86
2022/11/17 09:04:10;;;;;;;11.40;8.17;;;4.40;99.90;;;;;;5098011;28;20214;-86
2022/11/17 09:06:37;;;;;;;11.67;8.60;;;4.40;99.90;;;;;;5099096;28;20207;-85
2022/11/17 09:09:04;;;;;;;11.77;8.73;;;4.40;99.90;;;;;;5095426;28;20534;-84
2022/11/17 09:11:31;;;;;;;12.73;8.77;;;4.40;99.90;;;;;;5098363;28;20208;-85
2022/11/17 09:14:00;;;;;;;10.70;8.47;;;4.50;99.90;;;;;;5095776;28;20191;-85
2022/11/17 09:16:27;;;;;;;10.80;7.70;;;4.50;99.90;;;;;;5096844;28;20266;-88
2022/11/17 09:18:57;;;;;;;11.53;8.30;;;4.60;99.90;;;;;;5094839;28;20195;-87
2022/11/17 09:21:26;;;;;;;16.00;9.20;;;4.60;99.90;;;;;;5094240;28;20244;-85
2022/11/17 09:23:54;;;;;;;11.57;8.10;;;4.60;99.90;;;;;;5094502;28;20299;-84
2022/11/17 09:26:21;;;;;;;11.17;8.70;;;4.70;99.90;;;;;;5098281;28;20265;-89
2022/11/17 09:28:48;;;;;;;11.57;7.60;;;4.60;99.90;;;;;;5098361;28;20191;-87
2022/11/17 09:31:17;;;;;;;12.93;9.00;;;4.60;99.90;;;;;;5103974;28;20591;-85
2022/11/17 09:33:44;;;;;;;11.80;8.17;;;4.60;99.90;;;;;;5098404;28;20407;-87
2022/11/17 09:36:15;;;;;;;12.40;8.60;;;4.60;99.90;;;;;;5101235;28;20601;-88
2022/11/17 09:38:43;;;;;;;11.73;8.50;;;4.50;99.90;;;;;;5098791;28;20249;-88
2022/11/17 09:41:23;;;;;;;12.37;8.27;;;4.50;99.90;;;;;;5095721;28;20200;-89
2022/11/17 09:43:56;;;;;;;15.63;8.27;;;4.50;99.90;;;;;;5101591;28;20240;-87
2022/11/17 09:46:29;;;;;;;11.70;8.10;;;4.60;99.90;;;;;;5093844;28;20269;-86
2022/11/17 09:49:06;;;;;;;11.33;8.10;;;4.60;99.90;;;;;;5099314;28;20195;-86
2022/11/17 09:51:38;;;;;;;13.47;8.30;;;4.60;99.90;;;;;;5094394;28;20194;-87
2022/11/17 09:54:14;;;;;;;12.80;8.67;;;4.70;99.90;;;;;;5105412;28;20225;-88
2022/11/17 09:56:41;;;;;;;14.37;9.47;;;4.70;99.90;;;;;;5099667;28;20188;-85
2022/11/17 09:59:14;;;;;;;13.10;9.30;;;4.80;99.90;;;;;;5085795;28;20193;-88
2022/11/17 10:01:42;;;;;;;11.70;8.53;;;4.70;73.30;;;;;;5097464;28;20200;-91
2022/11/17 10:04:12;;;;;;;14.17;8.93;;;4.70;73.70;;;;;;5103515;28;20279;-86
2022/11/17 10:06:44;;;;;;;12.63;9.30;;;4.70;57.70;;;;;;5089172;28;20215;-86
2022/11/17 10:09:21;;;;;;;12.07;8.60;;;4.70;94.80;;;;;;5099241;28;20194;-88
2022/11/17 10:11:48;;;;;;;10.90;7.50;;;4.70;99.90;;;;;;5094715;28;20199;-86
2022/11/17 10:14:21;;;;;;;11.00;8.00;;;4.70;99.90;;;;;;5098100;28;20196;-86
2022/11/17 10:16:54;;;;;;;11.10;7.87;;;4.70;98.90;;;;;;5104846;28;20193;-88
2022/11/17 10:19:24;;;;;;;9.87;7.63;;;4.70;99.90;;;;;;5101113;28;20199;-85
2022/11/17 10:22:14;;;;;;;13.10;9.70;;;4.70;99.90;;;;;;5104697;28;20197;-86
2022/11/17 10:24:45;;;;;;;12.23;8.50;;;4.70;62.80;;;;;;5097341;28;20242;-87
2022/11/17 10:27:20;;;;;;;12.30;9.20;;;4.70;48.60;;;;;;5096891;28;20653;-86
2022/11/17 10:30:00;;;;;;;11.80;9.13;;;4.70;99.90;;;;;;5090841;28;20214;-87
2022/11/17 10:32:29;;;;;;;11.20;7.77;;;4.70;99.90;;;;;;5108460;28;20202;-89
2022/11/17 10:34:56;;;;;;;12.93;9.27;;;4.80;51.20;;;;;;5096919;28;20211;-87
2022/11/17 10:37:31;;;;;;;11.60;9.07;;;4.70;1.00;;;;;;5092203;28;20203;-87
2022/11/17 10:40:16;;;;;;;11.97;9.07;;;4.70;1.00;;;;;;5089988;28;20206;-84
2022/11/17 10:42:53;;;;;;;12.40;8.57;;;4.60;38.00;;;;;;5101324;28;20171;-87
2022/11/17 10:45:20;;;;;;;12.80;9.03;;;4.70;52.70;;;;;;5096955;28;20191;-88
2022/11/17 10:47:48;;;;;;;13.63;8.63;;;4.80;52.90;;;;;;5100035;28;20637;-87
2022/11/17 10:50:23;;;;;;;12.30;8.87;;;4.80;29.80;;;;;;5090560;28;20202;-87
2022/11/17 10:52:53;;;;;;;11.63;8.10;;;4.80;33.90;;;;;;5102554;28;20217;-85
2022/11/17 10:55:25;;;;;;;11.90;7.47;;;4.90;8.50;;;;;;5096399;28;20673;-86
2022/11/17 10:57:56;;;;;;;11.83;9.40;;;4.90;1.00;;;;;;5096753;28;20191;-87
2022/11/17 11:00:26;;;;;;;11.77;8.43;;;4.90;1.00;;;;;;5105016;28;20198;-85
2022/11/17 11:03:05;;;;;;;12.60;9.17;;;4.90;1.00;;;;;;5098528;28;20196;-86
2022/11/17 11:05:33;;;;;;;11.70;7.80;;;4.90;1.00;;;;;;5096611;28;20231;-86
2022/11/17 11:08:18;;;;;;;11.20;8.53;;;4.90;1.00;;;;;;5085050;28;20559;-87
2022/11/17 11:10:49;;;;;;;11.03;7.80;;;4.90;1.00;;;;;;5097661;28;20215;-87
2022/11/17 11:13:26;;;;;;;10.90;8.23;;;4.90;1.00;;;;;;5093032;28;20229;-85
2022/11/17 11:15:53;;;;;;;10.60;8.43;;;4.80;1.00;;;;;;5102472;28;20205;-89
2022/11/17 11:18:20;;;;;;;10.57;7.50;;;4.90;1.00;;;;;;5096559;28;20215;-85
2022/11/17 11:20:56;;;;;;;10.97;7.17;;;4.90;1.00;;;;;;5096182;28;20233;-86
2022/11/17 11:23:37;;;;;;;10.17;7.73;;;4.90;1.00;;;;;;5096729;28;20222;-86
2022/11/17 11:26:17;;;;;;;10.33;8.20;;;4.90;1.00;;;;;;5082149;28;20196;-87
2022/11/17 11:28:58;;;;;;;11.83;8.00;;;4.90;1.00;;;;;;5096745;28;20237;-87
2022/11/17 11:31:37;;;;;;;9.73;7.43;;;4.90;1.00;;;;;;5083458;28;20192;-87
2022/11/17 11:34:15;;;;;;;11.40;7.87;;;4.90;1.00;;;;;;5089985;28;20199;-86
2022/11/17 11:36:47;;;;;;;11.17;7.90;;;4.90;1.00;;;;;;5096415;28;20259;-86
2022/11/17 11:39:31;;;;;;;8.53;6.60;;;4.90;1.00;;;;;;5091289;28;20196;-87
2022/11/17 11:42:17;;;;;;;10.47;7.03;;;4.90;1.00;;;;;;5081284;28;20512;-87
2022/11/17 11:45:03;;;;;;;9.47;6.87;;;4.90;1.00;;;;;;5090574;28;20244;-87
2022/11/17 11:47:49;;;;;;;9.43;7.33;;;4.90;1.00;;;;;;5092800;28;20186;-88
2022/11/17 11:50:20;;;;;;;9.27;7.20;;;4.90;1.00;;;;;;5096797;28;20197;-86
2022/11/17 11:52:51;;;;;;;9.40;7.03;;;4.80;1.00;;;;;;5100565;28;20196;-84
2022/11/17 11:55:28;;;;;;;8.93;6.83;;;4.90;1.00;;;;;;5092063;28;20188;-85
2022/11/17 11:58:01;;;;;;;9.03;7.10;;;4.80;1.00;;;;;;5096524;28;20198;-87
2022/11/17 12:00:28;;;;;;;10.27;7.20;;;4.90;1.00;;;;;;5092398;28;20196;-86
2022/11/17 12:03:04;;;;;;;9.87;7.27;;;4.90;1.00;;;;;;5092430;28;20245;-87
2022/11/17 12:05:39;;;;;;;8.33;6.80;;;4.90;1.00;;;;;;5096345;28;20749;-85
2022/11/17 12:08:12;;;;;;;7.83;6.43;;;4.80;1.00;;;;;;5092548;28;20247;-85
2022/11/17 12:10:47;;;;;;;8.83;6.53;;;4.90;1.00;;;;;;5092296;28;20242;-86
2022/11/17 12:13:17;;;;;;;8.40;6.77;;;4.90;1.00;;;;;;5092286;28;20211;-86
2022/11/17 12:15:44;;;;;;;8.87;6.87;;;4.90;1.00;;;;;;5092049;28;20708;-85
2022/11/17 12:18:14;;;;;;;9.97;6.67;;;4.90;1.00;;;;;;5092261;28;20207;-87
2022/11/17 12:20:53;;;;;;;8.80;6.50;;;5.00;1.00;;;;;;5092399;28;20649;-86
2022/11/17 12:23:32;;;;;;;8.60;6.13;;;5.00;1.00;;;;;;5093842;28;20196;-86
2022/11/17 12:26:01;;;;;;;9.47;7.10;;;5.00;1.00;;;;;;5095980;28;20362;-87
2022/11/17 12:28:33;;;;;;;8.23;6.43;;;5.00;1.00;;;;;;5100087;28;20192;-86
2022/11/17 12:31:01;;;;;;;10.03;6.50;;;5.00;1.00;;;;;;5085552;28;20223;-87
2022/11/17 12:34:02;;;;;;;7.70;5.90;;;5.00;1.00;;;;;;5096195;28;20595;-86
2022/11/17 12:36:31;;;;;;;10.40;7.00;;;4.80;1.00;;;;;;5094198;28;20199;-88
2022/11/17 12:38:59;;;;;;;8.37;6.37;;;4.80;1.00;;;;;;5095364;28;20226;-87
2022/11/17 12:42:07;;;;;;;9.17;6.63;;;4.80;1.00;;;;;;5095934;28;20195;-87
2022/11/17 12:44:51;;;;;;;9.60;6.60;;;4.70;1.00;;;;;;5079526;28;20183;-88
2022/11/17 12:47:19;;;;;;;8.97;6.37;;;4.70;1.00;;;;;;5089121;28;20223;-88
2022/11/17 12:50:01;;;;;;;7.53;6.20;;;4.70;1.00;;;;;;5085482;28;20198;-87
2022/11/17 12:52:35;;;;;;;11.40;6.77;;;4.70;1.00;;;;;;5095369;28;20620;-85
2022/11/17 12:55:14;;;;;;;9.10;7.00;;;4.70;1.00;;;;;;5095257;28;20195;-89
2022/11/17 12:57:47;;;;;;;10.50;7.17;;;4.70;1.00;;;;;;5099815;28;20558;-88
2022/11/17 13:00:19;;;;;;;8.53;7.07;;;4.70;1.00;;;;;;5095498;28;20586;-87
2022/11/17 13:02:57;;;;;;;8.97;6.80;;;4.60;1.00;;;;;;5095074;28;20239;-87
2022/11/17 13:05:26;;;;;;;9.43;6.83;;;4.60;1.00;;;;;;5095016;28;20238;-86
2022/11/17 13:08:21;;;;;;;8.73;6.80;;;4.60;1.00;;;;;;5095123;28;20612;-86
2022/11/17 13:10:48;;;;;;;9.23;7.10;;;4.50;1.00;;;;;;5094811;28;20223;-86
2022/11/17 13:13:19;;;;;;;8.23;5.80;;;4.60;1.00;;;;;;5094909;28;20275;-85
2022/11/17 13:15:50;;;;;;;7.63;6.17;;;4.50;1.00;;;;;;5095448;28;20199;-86
2022/11/17 13:18:28;;;;;;;7.10;6.30;;;4.50;1.00;;;;;;5094690;28;20187;-86
2022/11/17 13:20:55;;;;;;;8.23;6.43;;;4.40;1.00;;;;;;5094933;28;20225;-86
2022/11/17 13:23:24;;;;;;;8.93;6.47;;;4.50;1.00;;;;;;5094811;28;20195;-87
2022/11/17 13:26:07;;;;;;;8.97;6.87;;;4.50;1.00;;;;;;5094657;28;20219;-86
2022/11/17 13:28:35;;;;;;;7.07;5.63;;;4.40;1.00;;;;;;5094749;28;20660;-86
2022/11/17 13:31:03;;;;;;;7.57;6.13;;;4.40;1.00;;;;;;5094154;28;20218;-87
2022/11/17 13:33:31;;;;;;;7.87;5.90;;;4.40;1.00;;;;;;5094258;28;20203;-87
2022/11/17 13:36:16;;;;;;;9.40;6.43;;;4.40;1.00;;;;;;5094738;28;20192;-86
2022/11/17 13:38:56;;;;;;;7.73;5.80;;;4.40;1.00;;;;;;5096281;28;20278;-87
2022/11/17 13:41:24;;;;;;;7.50;6.00;;;4.40;1.00;;;;;;5093922;28;20548;-87
2022/11/17 13:43:54;;;;;;;7.07;5.53;;;4.40;1.00;;;;;;5094207;28;20195;-86
2022/11/17 13:46:22;;;;;;;7.43;5.70;;;4.40;1.00;;;;;;5093951;28;20688;-88
2022/11/17 13:48:50;;;;;;;7.67;5.83;;;4.40;1.00;;;;;;5084978;28;20529;-87